Time;durP1;ratioP1;P1;durP2;ratioP2;P2;SDS_P1;SDS_P2;PMS_P1;PMS_P2;Temp;Humidity;BMP_temperature;BMP_pressure;BME280_temperature;BME280_humidity;BME280_pressure;Samples;Min_cycle;Max_cycle;Signal;HPM_P1;HPM_P2
2023/06/05 04:39:55;;;;;;;3.72;3.03;;;;;;;23.25;32.70;95712.31;6150449;23;20218;-86
2023/06/05 04:42:21;;;;;;;6.47;2.53;;;;;;;24.30;30.54;95710.84;6157531;23;20180;-80
2023/06/05 04:45:01;;;;;;;4.65;2.15;;;;;;;24.86;30.14;95716.63;6180792;23;20165;-83
2023/06/05 04:47:27;;;;;;;4.22;2.67;;;;;;;25.03;30.12;95712.25;6157142;23;20567;-81
2023/06/05 04:49:53;;;;;;;3.05;2.47;;;;;;;25.74;29.32;95718.19;6129425;23;20556;-82
2023/06/05 04:52:20;;;;;;;5.18;2.55;;;;;;;26.19;28.87;95720.03;6155516;23;20266;-83
2023/06/05 04:54:46;;;;;;;4.18;2.33;;;;;;;26.44;29.31;95717.00;6130418;23;20159;-81
2023/06/05 04:57:11;;;;;;;4.95;2.97;;;;;;;27.55;27.50;95717.69;6179212;23;20162;-81
2023/06/05 04:59:37;;;;;;;6.03;2.80;;;;;;;27.94;26.62;95715.72;6155151;23;20515;-81
2023/06/05 05:02:05;;;;;;;3.20;2.65;;;;;;;27.43;24.68;95717.03;6155285;23;20507;-82
2023/06/05 05:04:30;;;;;;;5.22;2.50;;;;;;;27.20;27.29;95720.72;6154982;23;20175;-81
2023/06/05 05:07:00;;;;;;;2.80;2.60;;;;;;;27.89;24.21;95713.00;6154351;23;20474;-82
2023/06/05 05:09:32;;;;;;;3.33;2.30;;;;;;;27.81;23.92;95713.44;6130982;23;20207;-81
2023/06/05 05:11:58;;;;;;;2.90;2.03;;;;;;;27.87;24.65;95727.66;6146812;23;20323;-82
2023/06/05 05:14:29;;;;;;;4.15;1.98;;;;;;;27.45;25.05;95722.91;6133035;23;20702;-81
2023/06/05 05:16:55;;;;;;;2.70;2.47;;;;;;;28.99;22.70;95725.91;6167818;23;20150;-82
2023/06/05 05:19:21;;;;;;;2.50;2.30;;;;;;;30.85;20.77;95733.03;6150468;23;20254;-80
2023/06/05 05:21:47;;;;;;;2.40;2.17;;;;;;;29.45;22.74;95734.94;6126672;23;20159;-80
2023/06/05 05:24:13;;;;;;;5.32;2.15;;;;;;;30.56;21.02;95728.19;6123682;23;20183;-81
2023/06/05 05:26:39;;;;;;;5.97;2.22;;;;;;;29.98;21.82;95732.19;6103271;23;20335;-79
2023/06/05 05:29:05;;;;;;;4.55;2.75;;;;;;;29.60;22.49;95732.38;6153871;23;20159;-82
2023/06/05 05:31:30;;;;;;;2.00;1.90;;;;;;;28.98;22.97;95719.78;6180904;23;20175;-82
2023/06/05 05:33:56;;;;;;;3.17;2.40;;;;;;;28.18;24.00;95721.56;6181116;23;20183;-82
2023/06/05 05:36:21;;;;;;;4.38;2.53;;;;;;;29.50;22.44;95729.63;6181036;23;20151;-82
2023/06/05 05:38:46;;;;;;;3.08;2.28;;;;;;;29.17;22.58;95735.38;6156992;23;20663;-83
2023/06/05 05:41:11;;;;;;;4.95;2.10;;;;;;;30.08;22.17;95725.00;6151651;23;20164;-82
2023/06/05 05:43:37;;;;;;;3.47;2.70;;;;;;;29.68;22.87;95730.22;6175211;23;20171;-83
2023/06/05 05:46:02;;;;;;;4.40;2.33;;;;;;;28.24;24.26;95730.41;6148330;23;20174;-82
2023/06/05 05:48:27;;;;;;;2.60;2.40;;;;;;;31.95;19.50;95740.16;6149880;23;20171;-83
2023/06/05 05:50:53;;;;;;;3.15;2.50;;;;;;;29.61;22.53;95735.84;6174912;23;20622;-83
2023/06/05 05:53:19;;;;;;;4.25;2.58;;;;;;;29.60;22.75;95732.38;6174886;23;20223;-83
2023/06/05 05:55:45;;;;;;;3.58;2.58;;;;;;;29.92;22.82;95733.22;6149731;23;20166;-81
2023/06/05 05:58:10;;;;;;;4.07;2.58;;;;;;;31.84;18.98;95739.44;6150296;23;20164;-81
2023/06/05 06:00:35;;;;;;;4.20;2.40;;;;;;;31.47;19.36;95743.34;6149242;23;20156;-83
2023/06/05 06:03:01;;;;;;;3.15;2.70;;;;;;;30.69;20.54;95738.41;6174109;23;20176;-83
2023/06/05 06:05:26;;;;;;;3.42;2.20;;;;;;;31.93;19.67;95745.03;6100264;23;20160;-81
2023/06/05 06:07:52;;;;;;;2.85;2.30;;;;;;;30.88;19.78;95749.38;6125207;23;20521;-83
2023/06/05 06:10:17;;;;;;;3.70;2.80;;;;;;;31.49;20.03;95745.75;6148995;23;20179;-83
2023/06/05 06:12:44;;;;;;;5.03;2.67;;;;;;;30.30;20.88;95742.69;6127176;23;20521;-82
2023/06/05 06:15:11;;;;;;;4.47;3.13;;;;;;;31.04;20.61;95744.00;6149922;23;20167;-83
2023/06/05 06:17:36;;;;;;;3.60;2.80;;;;;;;31.55;19.83;95740.09;6100264;23;20175;-82
2023/06/05 06:20:02;;;;;;;2.90;2.40;;;;;;;32.48;19.22;95740.38;6127077;23;20156;-83
2023/06/05 06:22:28;;;;;;;3.58;2.40;;;;;;;30.30;21.40;95740.00;6127229;23;20176;-83
2023/06/05 06:24:54;;;;;;;4.43;2.90;;;;;;;30.38;22.12;95737.59;6149909;23;20488;-83
2023/06/05 06:27:21;;;;;;;4.20;2.72;;;;;;;30.25;21.30;95737.34;6173339;23;20140;-83
2023/06/05 06:29:49;;;;;;;3.53;2.63;;;;;;;32.01;19.62;95739.06;6100337;23;20191;-82
2023/06/05 06:32:16;;;;;;;4.65;2.60;;;;;;;31.17;20.62;95744.22;6148217;23;20646;-81
2023/06/05 06:34:44;;;;;;;3.75;2.45;;;;;;;31.50;20.13;95744.66;6148078;23;20164;-80
2023/06/05 06:37:11;;;;;;;4.47;2.60;;;;;;;31.95;19.90;95737.50;6149399;23;20160;-84
2023/06/05 06:39:36;;;;;;;5.53;2.65;;;;;;;31.34;20.86;95741.25;6148391;23;20163;-82
2023/06/05 06:42:02;;;;;;;3.50;2.78;;;;;;;31.43;20.20;95744.16;6173701;23;20175;-82
2023/06/05 06:44:28;;;;;;;2.80;2.58;;;;;;;30.90;21.25;95741.06;6172645;23;20156;-81
2023/06/05 06:46:53;;;;;;;4.07;2.72;;;;;;;31.15;20.77;95746.38;6172195;23;20144;-82
2023/06/05 06:49:18;;;;;;;2.78;2.58;;;;;;;30.92;20.67;95746.94;6174134;23;20152;-83
2023/06/05 06:51:44;;;;;;;3.50;2.63;;;;;;;30.43;20.96;95740.28;6124785;23;20171;-82
2023/06/05 06:54:09;;;;;;;7.97;2.80;;;;;;;30.89;21.25;95734.91;6149690;23;20187;-83
2023/06/05 06:56:36;;;;;;;4.45;2.92;;;;;;;31.91;19.75;95741.81;6173888;23;20152;-82
2023/06/05 06:59:10;;;;;;;3.15;2.78;;;;;;;30.88;19.84;95738.66;6149454;23;20163;-82
2023/06/05 07:01:40;;;;;;;4.13;2.55;;;;;;;32.76;19.00;95733.38;6148957;23;20143;-82
2023/06/05 07:04:05;;;;;;;3.22;2.90;;;;;;;30.15;21.95;95738.13;6126069;23;20264;-82
2023/06/05 07:06:32;;;;;;;2.90;2.63;;;;;;;30.65;21.86;95737.34;6147655;23;20187;-82
2023/06/05 07:08:57;;;;;;;4.45;2.88;;;;;;;30.87;21.60;95738.94;6172584;23;20160;-82
2023/06/05 07:11:22;;;;;;;3.22;2.45;;;;;;;30.96;21.69;95740.00;6123530;23;20227;-83
2023/06/05 07:13:47;;;;;;;5.65;3.38;;;;;;;31.04;21.16;95744.78;6147715;23;20184;-81
2023/06/05 07:16:13;;;;;;;3.00;2.80;;;;;;;29.38;22.67;95739.72;6172223;23;20207;-83
2023/06/05 07:18:40;;;;;;;4.65;2.90;;;;;;;29.83;22.80;95743.66;6148376;23;20187;-83
2023/06/05 07:21:05;;;;;;;3.03;2.70;;;;;;;29.76;21.96;95738.53;6123955;23;20151;-84
2023/06/05 07:23:32;;;;;;;4.35;2.83;;;;;;;27.95;22.89;95737.88;6098311;23;20183;-86
2023/06/05 07:25:57;;;;;;;5.95;3.05;;;;;;;30.35;21.42;95745.38;6098812;23;20160;-86
2023/06/05 07:28:24;;;;;;;4.75;2.70;;;;;;;30.67;21.60;95737.09;6125766;23;20912;-83
2023/06/05 07:30:50;;;;;;;4.40;2.70;;;;;;;29.93;22.29;95737.50;6149050;23;20176;-84
2023/06/05 07:33:15;;;;;;;3.17;2.85;;;;;;;29.31;22.71;95731.94;6149574;23;20195;-86
2023/06/05 07:35:40;;;;;;;3.47;3.03;;;;;;;29.90;23.65;95733.50;6149302;23;20168;-84
2023/06/05 07:38:06;;;;;;;4.38;2.95;;;;;;;29.36;22.99;95741.88;6147738;23;20160;-82
2023/06/05 07:40:31;;;;;;;4.43;2.75;;;;;;;28.97;24.64;95739.53;6099519;23;20172;-86
2023/06/05 07:42:56;;;;;;;4.30;2.80;;;;;;;29.58;24.37;95739.81;6124918;23;20187;-84
2023/06/05 07:45:22;;;;;;;8.80;3.17;;;;;;;28.46;24.79;95733.03;6123568;23;20171;-84
2023/06/05 07:47:47;;;;;;;5.13;3.00;;;;;;;27.98;25.72;95731.22;6122661;23;20159;-86
2023/06/05 07:50:12;;;;;;;3.78;2.85;;;;;;;27.33;26.21;95733.72;6122618;23;20184;-84
2023/06/05 07:52:37;;;;;;;6.95;3.33;;;;;;;27.51;25.74;95739.78;6122463;23;20180;-85
2023/06/05 07:55:04;;;;;;;5.25;2.75;;;;;;;27.43;25.69;95737.53;6147510;23;20152;-84
2023/06/05 07:57:29;;;;;;;4.70;3.00;;;;;;;26.50;27.92;95738.13;6098168;23;20178;-84
2023/06/05 07:59:54;;;;;;;4.35;3.10;;;;;;;26.81;28.54;95744.72;6122555;23;20183;-84
2023/06/05 08:02:20;;;;;;;4.60;2.97;;;;;;;25.65;28.83;95740.84;6122371;23;20218;-85
2023/06/05 08:04:45;;;;;;;5.25;2.95;;;;;;;24.91;29.97;95740.63;6098508;23;20579;-85
2023/06/05 08:07:11;;;;;;;5.35;3.05;;;;;;;25.39;29.08;95737.69;6098217;23;20175;-84
2023/06/05 08:09:37;;;;;;;2.90;2.55;;;;;;;25.36;29.64;95737.38;6122937;23;20254;-85
2023/06/05 08:12:03;;;;;;;5.93;2.70;;;;;;;24.72;30.32;95733.84;6122913;23;20171;-85
2023/06/05 08:14:28;;;;;;;6.00;3.03;;;;;;;25.83;29.44;95737.22;6124118;23;20159;-84
2023/06/05 08:16:55;;;;;;;6.95;2.80;;;;;;;25.85;28.48;95733.28;6123566;23;20163;-85
2023/06/05 08:19:20;;;;;;;6.25;2.90;;;;;;;25.87;29.46;95733.03;6123016;23;20172;-85
2023/06/05 08:21:57;;;;;;;6.65;2.92;;;;;;;24.76;30.29;95737.66;6122552;23;20163;-84
2023/06/05 08:24:22;;;;;;;6.57;3.08;;;;;;;25.24;30.15;95739.22;6099227;23;20649;-85
2023/06/05 08:26:47;;;;;;;3.90;2.65;;;;;;;24.58;31.18;95738.59;6147082;23;20155;-84
2023/06/05 08:29:13;;;;;;;5.43;3.33;;;;;;;24.16;30.12;95735.16;6098448;23;20160;-84
2023/06/05 08:31:40;;;;;;;3.67;2.75;;;;;;;23.51;32.40;95737.69;6147524;23;20218;-85
2023/06/05 08:34:06;;;;;;;4.85;3.47;;;;;;;24.55;32.14;95731.88;6124387;23;20176;-84
2023/06/05 08:36:32;;;;;;;4.85;3.97;;;;;;;24.75;31.64;95741.34;6123240;23;20159;-84
2023/06/05 08:39:02;;;;;;;7.45;3.90;;;;;;;24.87;31.71;95728.88;6124374;23;20163;-84
2023/06/05 08:41:30;;;;;;;5.25;3.45;;;;;;;24.86;32.31;95732.56;6128087;23;20163;-85
2023/06/05 08:43:56;;;;;;;5.65;3.78;;;;;;;24.38;32.78;95730.94;6152341;23;20617;-85
2023/06/05 08:46:21;;;;;;;5.43;3.20;;;;;;;25.07;31.95;95729.31;6151228;23;20260;-85
2023/06/05 08:48:50;;;;;;;6.63;3.90;;;;;;;25.02;33.29;95729.22;6127133;23;20162;-85
2023/06/05 08:51:17;;;;;;;4.78;3.67;;;;;;;25.13;32.56;95732.91;6151880;23;20207;-84
2023/06/05 08:53:47;;;;;;;8.02;4.43;;;;;;;24.27;33.58;95740.47;6127268;23;20241;-85
2023/06/05 08:56:13;;;;;;;4.45;4.00;;;;;;;24.94;33.67;95732.22;6127694;23;20170;-85
2023/06/05 08:58:39;;;;;;;5.78;3.55;;;;;;;25.24;33.11;95736.56;6176777;23;20602;-85
2023/06/05 09:01:04;;;;;;;6.72;3.90;;;;;;;25.44;33.33;95729.00;6151861;23;20202;-85
2023/06/05 09:03:33;;;;;;;7.10;4.30;;;;;;;24.53;33.83;95723.34;6127964;23;20178;-85
2023/06/05 09:05:58;;;;;;;4.85;4.25;;;;;;;24.03;35.88;95730.88;6128180;23;20163;-83
2023/06/05 09:08:33;;;;;;;6.43;4.32;;;;;;;23.85;36.51;95730.91;6179181;23;20159;-85
2023/06/05 09:11:30;;;;;;;8.27;4.50;;;;;;;24.21;35.39;95729.97;6129462;23;20265;-84
2023/06/05 09:13:57;;;;;;;6.20;4.80;;;;;;;23.65;36.24;95739.94;6180020;23;20175;-85
2023/06/05 09:16:33;;;;;;;7.68;4.60;;;;;;;23.07;38.25;95743.09;6153151;23;20633;-84
2023/06/05 09:18:58;;;;;;;6.03;4.63;;;;;;;23.94;37.24;95734.84;6156030;23;20197;-83
2023/06/05 09:21:33;;;;;;;7.05;5.05;;;;;;;24.24;36.21;95734.81;6178690;23;20154;-84
2023/06/05 09:24:12;;;;;;;7.45;5.03;;;;;;;24.41;37.97;95729.69;6154056;23;20233;-84
2023/06/05 09:26:55;;;;;;;6.57;5.30;;;;;;;24.57;36.76;95724.50;6154625;23;20174;-84
2023/06/05 09:29:27;;;;;;;8.95;5.28;;;;;;;24.91;36.87;95731.84;6179158;23;20146;-85
2023/06/05 09:31:57;;;;;;;8.73;5.10;;;;;;;24.61;36.64;95730.16;6178401;23;20218;-84
2023/06/05 09:34:46;;;;;;;10.10;5.65;;;;;;;25.09;36.53;95726.44;6155062;23;20159;-84
2023/06/05 09:37:12;;;;;;;6.30;5.10;;;;;;;24.76;37.71;95725.19;6152629;23;20146;-85
2023/06/05 09:39:43;;;;;;;7.13;5.43;;;;;;;25.23;36.71;95725.13;6123701;23;20168;-84
2023/06/05 09:42:08;;;;;;;6.10;5.25;;;;;;;25.22;36.86;95730.69;6124117;23;20159;-85
2023/06/05 09:44:34;;;;;;;8.20;5.55;;;;;;;24.97;37.00;95729.09;6126111;23;20160;-85
2023/06/05 09:47:05;;;;;;;7.22;6.47;;;;;;;24.30;37.93;95723.31;6148736;23;20158;-85
2023/06/05 09:49:32;;;;;;;6.55;5.40;;;;;;;24.05;39.57;95725.34;6124683;23;20231;-85
2023/06/05 09:51:59;;;;;;;8.88;5.93;;;;;;;24.15;39.40;95723.72;6104063;23;20160;-85
2023/06/05 09:54:29;;;;;;;7.38;6.25;;;;;;;24.55;38.47;95718.59;6138123;23;20186;-85
2023/06/05 09:57:02;;;;;;;8.15;6.20;;;;;;;24.97;37.85;95718.47;6140810;23;20152;-84
2023/06/05 09:59:31;;;;;;;8.38;5.90;;;;;;;25.39;37.39;95720.94;6116648;23;20160;-85
2023/06/05 10:01:59;;;;;;;7.90;6.90;;;;;;;25.03;37.50;95722.06;6166163;23;20156;-84
2023/06/05 10:04:26;;;;;;;11.05;5.82;;;;;;;24.06;39.50;95724.28;6168593;23;20156;-85
2023/06/05 10:06:55;;;;;;;9.82;6.10;;;;;;;23.65;40.12;95715.28;6114771;23;20174;-86
2023/06/05 10:09:21;;;;;;;8.05;6.20;;;;;;;23.96;38.92;95720.34;6165725;23;20182;-85
2023/06/05 10:11:50;;;;;;;7.88;6.28;;;;;;;24.11;40.17;95721.75;6109586;23;20233;-85
2023/06/05 10:14:16;;;;;;;6.90;5.72;;;;;;;25.13;38.76;95716.97;6125870;23;20186;-85
2023/06/05 10:16:41;;;;;;;8.93;5.78;;;;;;;25.00;38.24;95715.34;6149474;23;20160;-85
2023/06/05 10:19:07;;;;;;;6.43;5.80;;;;;;;25.51;38.02;95716.38;6102627;23;20202;-85
2023/06/05 10:21:32;;;;;;;7.88;6.40;;;;;;;24.52;37.65;95716.41;6101835;23;20160;-85
2023/06/05 10:24:11;;;;;;;8.13;6.63;;;;;;;24.50;38.43;95721.16;6124900;23;20593;-85
2023/06/05 10:27:17;;;;;;;6.72;5.68;;;;;;;24.60;37.76;95717.09;6099209;23;20156;-85
2023/06/05 10:29:55;;;;;;;7.80;5.82;;;;;;;24.46;38.79;95713.88;6149541;23;20158;-84
2023/06/05 10:32:29;;;;;;;7.60;6.25;;;;;;;24.24;37.95;95713.59;6149049;23;20179;-85
2023/06/05 10:35:20;;;;;;;9.65;5.85;;;;;;;23.05;40.48;95723.13;6149603;23;20937;-85
2023/06/05 10:38:13;;;;;;;8.45;5.90;;;;;;;22.96;42.14;95721.81;6147786;23;20152;-86
2023/06/05 10:40:39;;;;;;;6.68;6.07;;;;;;;22.19;42.88;95722.09;6143027;23;20191;-84
2023/06/05 10:43:30;;;;;;;7.60;5.85;;;;;;;22.63;41.21;95719.50;6120773;23;20180;-84
2023/06/05 10:45:58;;;;;;;7.38;5.40;;;;;;;23.15;40.04;95711.00;6119749;23;20178;-84
2023/06/05 10:49:01;;;;;;;7.28;5.20;;;;;;;24.38;39.43;95716.84;6145387;23;20148;-85
2023/06/05 10:51:46;;;;;;;8.07;4.80;;;;;;;24.32;37.69;95723.09;6144097;23;20195;-85
2023/06/05 10:54:31;;;;;;;5.53;4.72;;;;;;;24.18;35.78;95714.50;6121022;23;20187;-84
2023/06/05 10:57:00;;;;;;;5.53;4.75;;;;;;;25.01;33.41;95710.84;6122655;23;20168;-84
2023/06/05 10:59:33;;;;;;;5.95;4.47;;;;;;;25.53;33.73;95702.84;6141429;23;20242;-84
2023/06/05 11:02:05;;;;;;;5.55;4.50;;;;;;;26.12;33.57;95704.19;6095810;23;20159;-84
2023/06/05 11:04:42;;;;;;;7.80;4.90;;;;;;;26.12;34.15;95709.53;6143460;23;20170;-84
2023/06/05 11:07:30;;;;;;;4.72;4.28;;;;;;;26.27;33.42;95711.63;6145945;23;20155;-83
2023/06/05 11:10:01;;;;;;;6.13;4.05;;;;;;;25.51;34.13;95703.09;6124827;23;20187;-84
2023/06/05 11:12:27;;;;;;;5.35;4.50;;;;;;;24.70;34.26;95698.75;6126345;23;20175;-84
2023/06/05 11:14:52;;;;;;;6.25;4.40;;;;;;;25.57;33.58;95701.34;6125696;23;20183;-85
2023/06/05 11:17:31;;;;;;;6.63;4.80;;;;;;;25.70;33.24;95703.69;6127105;23;20239;-84
2023/06/05 11:19:58;;;;;;;8.43;4.95;;;;;;;25.05;32.50;95702.19;6128973;23;20164;-83
2023/06/05 11:22:23;;;;;;;5.60;4.85;;;;;;;25.01;33.18;95701.03;6127004;23;20171;-83
2023/06/05 11:25:13;;;;;;;6.80;4.50;;;;;;;24.36;33.68;95690.53;6126159;23;20162;-82
2023/06/05 11:27:46;;;;;;;6.93;4.90;;;;;;;24.84;34.81;95694.81;6127959;23;20152;-85
2023/06/05 11:30:12;;;;;;;7.68;5.18;;;;;;;23.92;35.35;95689.19;6102540;23;20180;-82
2023/06/05 11:32:37;;;;;;;9.93;4.78;;;;;;;24.45;34.27;95683.84;6126758;23;20190;-83
2023/06/05 11:35:04;;;;;;;6.63;4.15;;;;;;;25.66;33.37;95684.75;6126275;23;20160;-84
2023/06/05 11:37:31;;;;;;;6.45;4.47;;;;;;;25.38;33.09;95687.44;6100398;23;20155;-85
2023/06/05 11:39:57;;;;;;;6.40;4.30;;;;;;;25.39;32.57;95691.69;6102993;23;20168;-84
2023/06/05 11:42:25;;;;;;;5.72;4.72;;;;;;;24.58;33.13;95686.28;6102751;23;20715;-84
2023/06/05 11:44:51;;;;;;;6.18;4.80;;;;;;;24.10;33.37;95690.94;6125744;23;20224;-83
2023/06/05 11:47:28;;;;;;;9.52;4.95;;;;;;;24.46;33.48;95689.97;6150178;23;20159;-83
2023/06/05 11:49:53;;;;;;;5.68;4.38;;;;;;;24.66;32.75;95685.13;6149751;23;20159;-84
2023/06/05 11:52:21;;;;;;;4.90;4.43;;;;;;;25.18;31.71;95687.00;6100349;23;20187;-84
2023/06/05 11:55:04;;;;;;;5.55;4.72;;;;;;;24.77;31.59;95689.63;6126072;23;20159;-85
2023/06/05 11:57:39;;;;;;;5.57;4.68;;;;;;;25.08;31.72;95682.31;6146504;23;20819;-86
2023/06/05 12:00:07;;;;;;;9.32;4.43;;;;;;;24.32;32.77;95673.47;6099887;23;20144;-83
2023/06/05 12:02:32;;;;;;;6.95;4.72;;;;;;;23.77;33.36;95678.22;6149587;23;20778;-84
2023/06/05 12:04:57;;;;;;;7.32;5.07;;;;;;;23.92;33.50;95679.38;6125935;23;20164;-84
2023/06/05 12:07:29;;;;;;;6.85;4.43;;;;;;;24.27;33.01;95678.63;6100076;23;20168;-84
2023/06/05 12:09:55;;;;;;;4.90;4.38;;;;;;;23.94;33.23;95682.66;6126214;23;20195;-84
2023/06/05 12:12:20;;;;;;;6.68;4.45;;;;;;;23.74;33.23;95680.28;6125838;23;20602;-84
2023/06/05 12:14:46;;;;;;;6.57;4.72;;;;;;;23.53;33.74;95678.09;6148476;23;20211;-85
2023/06/05 12:17:11;;;;;;;5.38;4.30;;;;;;;23.42;32.96;95674.38;6100483;23;20174;-84
2023/06/05 12:19:37;;;;;;;6.85;4.05;;;;;;;23.61;32.61;95677.81;6125537;23;20156;-85
2023/06/05 12:22:05;;;;;;;7.47;3.75;;;;;;;23.64;32.56;95671.25;6125629;23;20205;-84
2023/06/05 12:24:31;;;;;;;5.50;4.20;;;;;;;23.91;32.81;95667.16;6127157;23;20159;-84
2023/06/05 12:27:01;;;;;;;5.95;3.92;;;;;;;24.04;31.72;95666.16;6123833;23;20167;-85
2023/06/05 12:29:34;;;;;;;4.93;4.50;;;;;;;24.93;31.90;95658.06;6126092;23;20167;-88
2023/06/05 12:32:56;;;;;;;7.05;4.20;;;;;;;24.78;31.42;95671.84;6104141;23;20152;-90
2023/06/05 12:36:20;;;;;;;5.30;4.10;;;;;;;24.25;30.98;95670.09;6042449;23;20571;-90
2023/06/05 12:39:12;;;;;;;4.72;3.72;;;;;;;24.04;31.00;95668.00;6065414;23;20185;-89
2023/06/05 12:42:35;;;;;;;6.68;4.53;;;;;;;24.20;30.08;95659.34;6044935;23;20157;-90
2023/06/05 12:46:08;;;;;;;5.32;4.30;;;;;;;24.64;30.07;95660.66;6035304;23;20186;-91
2023/06/05 12:59:54;;;;;;;6.18;3.58;;;;;;;25.40;27.65;95650.78;6128427;23;20442;-84
2023/06/05 13:02:20;;;;;;;4.40;3.70;;;;;;;25.74;27.13;95648.22;6181675;23;20194;-84
2023/06/05 13:04:45;;;;;;;5.45;4.00;;;;;;;26.08;28.39;95651.72;6160399;23;20497;-86
2023/06/05 13:07:11;;;;;;;5.75;4.10;;;;;;;25.74;27.81;95653.53;6112497;23;20230;-85
2023/06/05 13:09:36;;;;;;;4.13;3.72;;;;;;;26.06;26.91;95645.81;6137278;23;20171;-84
2023/06/05 13:12:03;;;;;;;4.45;4.05;;;;;;;25.53;27.83;95655.00;6135275;23;20167;-83
2023/06/05 13:17:57;;;;;;;5.00;3.28;;;;;;;26.18;27.66;95642.03;6168670;23;20214;-90
2023/06/05 13:20:22;;;;;;;5.60;3.60;;;;;;;25.81;27.07;95639.06;6133492;23;20171;-82
2023/06/05 13:28:44;;;;;;;7.72;4.03;;;;;;;24.61;28.19;95634.56;6155172;23;20265;-81
2023/06/05 13:31:10;;;;;;;6.68;4.07;;;;;;;24.68;28.97;95634.44;6128966;23;20186;-82
2023/06/05 13:33:36;;;;;;;6.40;3.85;;;;;;;24.88;28.71;95637.53;6129026;23;20186;-82
2023/06/05 13:36:01;;;;;;;3.92;3.38;;;;;;;25.23;27.38;95647.25;6128692;23;20198;-80
2023/06/05 13:38:27;;;;;;;7.57;4.45;;;;;;;25.25;26.58;95635.34;6129738;23;20162;-84
2023/06/05 13:40:52;;;;;;;4.03;3.63;;;;;;;24.83;27.11;95626.81;6105692;23;20155;-83
2023/06/05 13:43:18;;;;;;;4.57;3.65;;;;;;;25.49;25.88;95620.09;6128899;23;20206;-83
2023/06/05 13:45:43;;;;;;;4.18;3.58;;;;;;;25.34;26.61;95630.47;6128801;23;20164;-83
2023/06/05 13:48:09;;;;;;;4.90;3.30;;;;;;;25.57;27.51;95624.22;6129474;23;20155;-82
2023/06/05 13:50:35;;;;;;;6.03;3.70;;;;;;;25.77;25.92;95619.28;6128897;23;20245;-82
2023/06/05 13:53:00;;;;;;;4.45;4.05;;;;;;;26.20;25.00;95621.28;6131048;23;20179;-83
2023/06/05 13:55:25;;;;;;;6.05;3.80;;;;;;;25.66;26.52;95626.25;6128997;23;20159;-80
2023/06/05 13:57:51;;;;;;;6.18;3.65;;;;;;;26.08;25.04;95625.09;6129999;23;20182;-81
2023/06/05 14:00:16;;;;;;;4.22;3.80;;;;;;;25.70;25.68;95621.25;6130628;23;20163;-83
2023/06/05 14:02:42;;;;;;;4.45;3.78;;;;;;;26.20;24.87;95610.66;6131689;23;20175;-84
2023/06/05 14:05:08;;;;;;;4.68;3.42;;;;;;;25.75;25.07;95612.59;6130725;23;20273;-83
2023/06/05 14:07:36;;;;;;;4.38;3.97;;;;;;;26.41;24.93;95609.09;6155722;23;20182;-84
2023/06/05 14:10:03;;;;;;;6.72;4.03;;;;;;;25.76;25.00;95608.88;6155339;23;20554;-84
2023/06/05 14:12:29;;;;;;;5.38;4.10;;;;;;;26.34;23.75;95615.66;6155251;23;20195;-83
2023/06/05 14:14:54;;;;;;;7.75;3.72;;;;;;;26.28;24.22;95612.09;6154766;23;20637;-83
2023/06/05 14:17:20;;;;;;;6.95;4.10;;;;;;;26.40;24.80;95614.69;6154162;23;20162;-82
2023/06/05 14:19:45;;;;;;;5.93;3.70;;;;;;;25.52;24.69;95608.97;6156314;23;20155;-83
2023/06/05 14:22:10;;;;;;;6.32;4.32;;;;;;;25.29;25.32;95604.59;6155115;23;20158;-83
2023/06/05 14:24:36;;;;;;;6.88;3.60;;;;;;;25.97;25.41;95605.50;6154855;23;20179;-82
2023/06/05 14:27:01;;;;;;;7.30;4.30;;;;;;;26.34;24.14;95605.00;6128744;23;20683;-83
2023/06/05 14:29:26;;;;;;;4.43;3.60;;;;;;;26.70;23.42;95601.78;6130120;23;20657;-83
2023/06/05 14:31:51;;;;;;;6.50;3.67;;;;;;;26.30;24.89;95604.66;6130054;23;20237;-83
2023/06/05 14:34:17;;;;;;;4.47;4.00;;;;;;;25.76;24.28;95599.06;6130566;23;20182;-82
2023/06/05 14:36:49;;;;;;;6.53;4.35;;;;;;;25.91;24.72;95606.47;6128701;23;20163;-82
2023/06/05 14:39:16;;;;;;;4.40;3.63;;;;;;;25.66;24.67;95610.31;6129176;23;20539;-82
2023/06/05 14:41:42;;;;;;;9.68;4.38;;;;;;;25.22;25.22;95598.63;6153551;23;20148;-82
2023/06/05 14:44:07;;;;;;;5.28;4.10;;;;;;;24.51;25.66;95591.88;6155300;23;20179;-81
2023/06/05 14:46:32;;;;;;;4.70;3.90;;;;;;;25.21;24.85;95602.31;6128861;23;20163;-82
2023/06/05 14:48:58;;;;;;;4.80;4.25;;;;;;;25.32;24.31;95592.69;6129758;23;20162;-81
2023/06/05 14:51:23;;;;;;;8.70;4.07;;;;;;;24.95;24.73;95592.22;6157950;23;20685;-80
2023/06/05 14:53:48;;;;;;;4.47;4.07;;;;;;;25.14;25.33;95591.84;6130990;23;20216;-80
2023/06/05 14:56:14;;;;;;;6.18;3.92;;;;;;;24.81;25.77;95599.66;6130282;23;20178;-80
2023/06/05 14:58:39;;;;;;;5.15;4.38;;;;;;;25.44;24.01;95598.75;6130367;23;20174;-80
2023/06/05 15:01:04;;;;;;;5.82;4.18;;;;;;;25.23;25.57;95597.56;6131048;23;20159;-82
2023/06/05 15:03:29;;;;;;;8.80;4.38;;;;;;;25.25;24.00;95594.69;6131072;23;20209;-80
2023/06/05 15:05:55;;;;;;;5.75;4.00;;;;;;;25.46;24.12;95587.88;6107223;23;20276;-81
2023/06/05 15:08:21;;;;;;;6.93;4.15;;;;;;;25.53;25.19;95597.31;6154504;23;20152;-81
2023/06/05 15:10:47;;;;;;;4.35;3.95;;;;;;;25.86;24.48;95601.06;6153384;23;20187;-81
2023/06/05 15:13:12;;;;;;;4.70;4.25;;;;;;;25.37;25.07;95595.44;6128887;23;20517;-81
2023/06/05 15:15:37;;;;;;;4.20;3.78;;;;;;;25.26;24.08;95596.28;6152723;23;20170;-82
2023/06/05 15:18:03;;;;;;;4.75;4.22;;;;;;;25.34;24.21;95595.91;6153568;23;20155;-80
2023/06/05 15:20:28;;;;;;;4.90;3.65;;;;;;;26.17;24.82;95589.84;6152026;23;20166;-82
2023/06/05 15:22:53;;;;;;;5.40;3.75;;;;;;;25.48;24.08;95585.78;6127637;23;20619;-84
2023/06/05 15:25:19;;;;;;;4.13;3.50;;;;;;;25.54;24.15;95585.66;6129069;23;20162;-81
2023/06/05 15:27:44;;;;;;;5.22;3.40;;;;;;;25.67;23.99;95587.97;6127923;23;20171;-81
2023/06/05 15:30:10;;;;;;;4.85;3.42;;;;;;;25.86;24.09;95588.56;6128558;23;20179;-83
2023/06/05 15:32:35;;;;;;;5.70;3.67;;;;;;;26.04;23.52;95584.84;6129863;23;20182;-82
2023/06/05 15:35:00;;;;;;;5.22;3.55;;;;;;;25.51;24.63;95587.97;6102208;23;20163;-82
2023/06/05 15:37:25;;;;;;;4.25;3.85;;;;;;;25.10;25.49;95585.41;6154055;23;20162;-82
2023/06/05 15:39:51;;;;;;;3.70;3.35;;;;;;;25.91;23.22;95582.53;6128578;23;20165;-81
2023/06/05 15:42:36;;;;;;;8.85;3.42;;;;;;;25.51;24.41;95582.63;6104295;23;20747;-83
2023/06/05 15:45:09;;;;;;;6.35;3.40;;;;;;;25.67;23.56;95574.69;6128149;23;20182;-81
2023/06/05 15:47:35;;;;;;;7.13;3.47;;;;;;;25.52;24.49;95586.91;6127716;23;20246;-81
2023/06/05 15:50:01;;;;;;;4.45;3.30;;;;;;;25.31;24.18;95573.28;6128737;23;20214;-84
2023/06/05 15:52:30;;;;;;;6.85;3.30;;;;;;;25.23;24.13;95576.31;6155199;23;20182;-82
2023/06/05 15:54:56;;;;;;;4.88;3.25;;;;;;;25.36;24.32;95577.88;6128683;23;20167;-81
2023/06/05 15:57:22;;;;;;;4.38;3.40;;;;;;;25.18;24.99;95570.94;6152027;23;20211;-82
2023/06/05 15:59:47;;;;;;;6.93;3.30;;;;;;;25.50;24.33;95560.56;6152668;23;20159;-79
2023/06/05 16:02:12;;;;;;;6.05;3.30;;;;;;;25.39;24.17;95570.22;6127343;23;20221;-80
2023/06/05 16:04:41;;;;;;;3.88;3.08;;;;;;;25.23;24.57;95567.53;6129469;23;20163;-86
2023/06/05 16:07:06;;;;;;;4.18;3.13;;;;;;;24.72;24.87;95564.69;6129610;23;20182;-84
2023/06/05 16:09:31;;;;;;;3.30;3.00;;;;;;;25.77;23.82;95563.44;6156175;23;20163;-84
2023/06/05 16:11:57;;;;;;;6.28;3.10;;;;;;;26.07;23.49;95559.63;6130291;23;20246;-84
2023/06/05 16:14:25;;;;;;;6.85;3.17;;;;;;;24.79;23.84;95559.25;6104870;23;20159;-84
2023/06/05 16:16:50;;;;;;;5.18;3.35;;;;;;;25.65;23.31;95555.50;6099614;23;20661;-82
2023/06/05 16:19:15;;;;;;;3.53;3.10;;;;;;;26.08;23.28;95561.25;6127576;23;20166;-83
2023/06/05 16:21:41;;;;;;;6.07;2.90;;;;;;;25.91;23.01;95558.59;6126599;23;20155;-83
2023/06/05 16:24:07;;;;;;;6.00;3.33;;;;;;;25.82;23.01;95560.84;6126372;23;20186;-82
2023/06/05 16:26:32;;;;;;;4.22;3.42;;;;;;;25.89;24.13;95558.84;6151226;23;20206;-82
2023/06/05 16:28:57;;;;;;;4.28;3.20;;;;;;;26.06;23.35;95566.81;6127513;23;20174;-82
2023/06/05 16:31:24;;;;;;;4.85;2.63;;;;;;;26.22;22.40;95559.81;6128139;23;20190;-83
2023/06/05 16:33:49;;;;;;;3.08;2.83;;;;;;;26.02;23.04;95563.00;6104680;23;20238;-85
2023/06/05 16:36:14;;;;;;;4.95;3.20;;;;;;;26.01;23.53;95568.59;6154381;23;20167;-83
2023/06/05 16:38:40;;;;;;;6.55;2.70;;;;;;;25.66;23.27;95558.97;6155658;23;20155;-84
2023/06/05 16:41:05;;;;;;;4.18;2.70;;;;;;;25.64;23.29;95564.53;6131289;23;20191;-83